sensor_id;sensor_type;location;lat;lon;timestamp;P1;durP1;ratioP1;P2;durP2;ratioP2
37593;SDS011;23441;50.856;6.076;2022-11-20T00:03:36;46.17;;;21.10;;
37593;SDS011;23441;50.856;6.076;2022-11-20T00:06:03;48.37;;;21.00;;
37593;SDS011;23441;50.856;6.076;2022-11-20T00:08:30;43.08;;;21.52;;
37593;SDS011;23441;50.856;6.076;2022-11-20T00:10:56;46.63;;;23.33;;
37593;SDS011;23441;50.856;6.076;2022-11-20T00:13:22;46.33;;;22.83;;
37593;SDS011;23441;50.856;6.076;2022-11-20T00:15:48;52.07;;;23.53;;
37593;SDS011;23441;50.856;6.076;2022-11-20T00:18:21;44.77;;;22.63;;
37593;SDS011;23441;50.856;6.076;2022-11-20T00:20:47;42.53;;;21.20;;
37593;SDS011;23441;50.856;6.076;2022-11-20T00:23:13;46.08;;;22.73;;
37593;SDS011;23441;50.856;6.076;2022-11-20T00:25:38;55.28;;;24.95;;
37593;SDS011;23441;50.856;6.076;2022-11-20T00:28:04;52.95;;;24.77;;
37593;SDS011;23441;50.856;6.076;2022-11-20T00:30:30;52.47;;;23.05;;
37593;SDS011;23441;50.856;6.076;2022-11-20T00:32:56;45.40;;;23.10;;
37593;SDS011;23441;50.856;6.076;2022-11-20T00:35:23;49.00;;;22.98;;
37593;SDS011;23441;50.856;6.076;2022-11-20T00:37:48;46.15;;;22.35;;
37593;SDS011;23441;50.856;6.076;2022-11-20T00:40:15;44.55;;;22.27;;
37593;SDS011;23441;50.856;6.076;2022-11-20T00:42:40;47.42;;;21.60;;
37593;SDS011;23441;50.856;6.076;2022-11-20T00:45:06;50.20;;;23.38;;
37593;SDS011;23441;50.856;6.076;2022-11-20T00:47:32;51.28;;;23.20;;
37593;SDS011;23441;50.856;6.076;2022-11-20T00:49:58;52.03;;;24.52;;
37593;SDS011;23441;50.856;6.076;2022-11-20T00:52:24;44.25;;;22.40;;
37593;SDS011;23441;50.856;6.076;2022-11-20T00:54:50;50.88;;;23.23;;
37593;SDS011;23441;50.856;6.076;2022-11-20T00:57:15;46.17;;;22.55;;
37593;SDS011;23441;50.856;6.076;2022-11-20T00:59:41;42.30;;;21.67;;
37593;SDS011;23441;50.856;6.076;2022-11-20T01:02:07;50.63;;;24.15;;
37593;SDS011;23441;50.856;6.076;2022-11-20T01:04:33;46.70;;;23.10;;
37593;SDS011;23441;50.856;6.076;2022-11-20T01:06:58;47.45;;;22.85;;
37593;SDS011;23441;50.856;6.076;2022-11-20T01:09:24;50.97;;;25.10;;
37593;SDS011;23441;50.856;6.076;2022-11-20T01:11:50;46.60;;;22.33;;
37593;SDS011;23441;50.856;6.076;2022-11-20T01:14:17;53.75;;;23.92;;
37593;SDS011;23441;50.856;6.076;2022-11-20T01:16:46;45.10;;;22.20;;
37593;SDS011;23441;50.856;6.076;2022-11-20T01:19:14;46.60;;;22.17;;
37593;SDS011;23441;50.856;6.076;2022-11-20T01:21:48;47.60;;;22.90;;
37593;SDS011;23441;50.856;6.076;2022-11-20T01:24:19;46.42;;;23.55;;
37593;SDS011;23441;50.856;6.076;2022-11-20T01:26:47;44.88;;;22.17;;
37593;SDS011;23441;50.856;6.076;2022-11-20T01:29:15;44.88;;;23.13;;
37593;SDS011;23441;50.856;6.076;2022-11-20T01:31:43;43.63;;;22.55;;
37593;SDS011;23441;50.856;6.076;2022-11-20T01:34:10;44.67;;;22.23;;
37593;SDS011;23441;50.856;6.076;2022-11-20T01:36:38;45.20;;;22.38;;
37593;SDS011;23441;50.856;6.076;2022-11-20T01:39:06;46.38;;;21.77;;
37593;SDS011;23441;50.856;6.076;2022-11-20T01:41:35;42.28;;;21.73;;
37593;SDS011;23441;50.856;6.076;2022-11-20T01:44:21;43.17;;;22.17;;
37593;SDS011;23441;50.856;6.076;2022-11-20T01:47:07;45.35;;;21.10;;
37593;SDS011;23441;50.856;6.076;2022-11-20T01:49:42;44.78;;;21.90;;
37593;SDS011;23441;50.856;6.076;2022-11-20T01:52:15;46.85;;;21.77;;
37593;SDS011;23441;50.856;6.076;2022-11-20T01:55:08;42.35;;;21.35;;
37593;SDS011;23441;50.856;6.076;2022-11-20T01:57:35;43.63;;;21.55;;
37593;SDS011;23441;50.856;6.076;2022-11-20T02:00:07;42.65;;;21.17;;
37593;SDS011;23441;50.856;6.076;2022-11-20T02:02:37;44.95;;;22.08;;
37593;SDS011;23441;50.856;6.076;2022-11-20T02:05:14;39.53;;;21.10;;
37593;SDS011;23441;50.856;6.076;2022-11-20T02:07:48;40.90;;;20.92;;
37593;SDS011;23441;50.856;6.076;2022-11-20T02:10:14;41.58;;;20.50;;
37593;SDS011;23441;50.856;6.076;2022-11-20T02:12:40;46.13;;;22.27;;
37593;SDS011;23441;50.856;6.076;2022-11-20T02:15:25;39.20;;;21.25;;
37593;SDS011;23441;50.856;6.076;2022-11-20T02:17:51;40.65;;;20.73;;
37593;SDS011;23441;50.856;6.076;2022-11-20T02:20:18;39.78;;;22.13;;
37593;SDS011;23441;50.856;6.076;2022-11-20T02:23:01;39.97;;;20.02;;
37593;SDS011;23441;50.856;6.076;2022-11-20T02:25:43;43.22;;;21.13;;
37593;SDS011;23441;50.856;6.076;2022-11-20T02:28:10;40.63;;;20.83;;
37593;SDS011;23441;50.856;6.076;2022-11-20T02:30:36;42.88;;;20.95;;
37593;SDS011;23441;50.856;6.076;2022-11-20T02:33:02;43.08;;;21.98;;
37593;SDS011;23441;50.856;6.076;2022-11-20T02:37:54;40.75;;;20.00;;
37593;SDS011;23441;50.856;6.076;2022-11-20T02:40:22;41.70;;;20.38;;
37593;SDS011;23441;50.856;6.076;2022-11-20T02:42:51;43.63;;;20.40;;
37593;SDS011;23441;50.856;6.076;2022-11-20T02:45:21;44.03;;;20.63;;
37593;SDS011;23441;50.856;6.076;2022-11-20T02:47:47;41.03;;;21.13;;
37593;SDS011;23441;50.856;6.076;2022-11-20T02:50:14;47.22;;;22.25;;
37593;SDS011;23441;50.856;6.076;2022-11-20T02:52:40;42.67;;;20.58;;
37593;SDS011;23441;50.856;6.076;2022-11-20T02:55:06;43.15;;;21.80;;
37593;SDS011;23441;50.856;6.076;2022-11-20T02:57:32;46.00;;;21.65;;
37593;SDS011;23441;50.856;6.076;2022-11-20T02:59:59;41.30;;;20.67;;
37593;SDS011;23441;50.856;6.076;2022-11-20T03:02:25;44.65;;;20.83;;
37593;SDS011;23441;50.856;6.076;2022-11-20T03:04:50;39.92;;;21.17;;
37593;SDS011;23441;50.856;6.076;2022-11-20T03:07:16;43.78;;;21.45;;
37593;SDS011;23441;50.856;6.076;2022-11-20T03:09:42;43.83;;;21.63;;
37593;SDS011;23441;50.856;6.076;2022-11-20T03:12:07;41.85;;;21.27;;
37593;SDS011;23441;50.856;6.076;2022-11-20T03:14:34;40.05;;;21.33;;
37593;SDS011;23441;50.856;6.076;2022-11-20T03:17:00;42.78;;;19.85;;
37593;SDS011;23441;50.856;6.076;2022-11-20T03:19:25;37.97;;;19.98;;
37593;SDS011;23441;50.856;6.076;2022-11-20T03:21:51;40.73;;;20.57;;
37593;SDS011;23441;50.856;6.076;2022-11-20T03:24:17;43.97;;;21.95;;
37593;SDS011;23441;50.856;6.076;2022-11-20T03:26:43;40.22;;;21.17;;
37593;SDS011;23441;50.856;6.076;2022-11-20T03:29:09;45.85;;;23.23;;
37593;SDS011;23441;50.856;6.076;2022-11-20T03:31:36;46.38;;;23.40;;
37593;SDS011;23441;50.856;6.076;2022-11-20T03:34:05;49.90;;;25.17;;
37593;SDS011;23441;50.856;6.076;2022-11-20T03:36:33;48.88;;;24.30;;
37593;SDS011;23441;50.856;6.076;2022-11-20T03:38:59;51.30;;;25.05;;
37593;SDS011;23441;50.856;6.076;2022-11-20T03:41:26;52.58;;;24.48;;
37593;SDS011;23441;50.856;6.076;2022-11-20T03:43:54;53.85;;;25.70;;
37593;SDS011;23441;50.856;6.076;2022-11-20T03:46:22;56.50;;;25.05;;
37593;SDS011;23441;50.856;6.076;2022-11-20T03:48:48;51.03;;;25.33;;
37593;SDS011;23441;50.856;6.076;2022-11-20T03:51:16;53.17;;;24.67;;
37593;SDS011;23441;50.856;6.076;2022-11-20T03:53:45;56.35;;;26.52;;
37593;SDS011;23441;50.856;6.076;2022-11-20T03:56:12;47.25;;;23.92;;
37593;SDS011;23441;50.856;6.076;2022-11-20T03:58:40;49.55;;;22.88;;
37593;SDS011;23441;50.856;6.076;2022-11-20T04:01:16;51.38;;;23.83;;
37593;SDS011;23441;50.856;6.076;2022-11-20T04:03:44;52.25;;;23.92;;
37593;SDS011;23441;50.856;6.076;2022-11-20T04:06:23;43.92;;;23.08;;
37593;SDS011;23441;50.856;6.076;2022-11-20T04:08:49;47.45;;;23.05;;
37593;SDS011;23441;50.856;6.076;2022-11-20T04:11:34;43.90;;;24.02;;
37593;SDS011;23441;50.856;6.076;2022-11-20T04:14:03;40.97;;;22.07;;
37593;SDS011;23441;50.856;6.076;2022-11-20T04:16:35;44.13;;;23.40;;
37593;SDS011;23441;50.856;6.076;2022-11-20T04:19:02;43.97;;;23.60;;
37593;SDS011;23441;50.856;6.076;2022-11-20T04:21:30;47.80;;;23.70;;
37593;SDS011;23441;50.856;6.076;2022-11-20T04:23:56;39.20;;;22.50;;
37593;SDS011;23441;50.856;6.076;2022-11-20T04:26:23;43.80;;;23.40;;
37593;SDS011;23441;50.856;6.076;2022-11-20T04:28:50;47.13;;;23.95;;
37593;SDS011;23441;50.856;6.076;2022-11-20T04:31:18;47.70;;;23.97;;
37593;SDS011;23441;50.856;6.076;2022-11-20T04:33:46;45.33;;;24.47;;
37593;SDS011;23441;50.856;6.076;2022-11-20T04:36:13;47.90;;;22.80;;
37593;SDS011;23441;50.856;6.076;2022-11-20T04:38:40;49.15;;;24.95;;
37593;SDS011;23441;50.856;6.076;2022-11-20T04:41:08;47.45;;;24.13;;
37593;SDS011;23441;50.856;6.076;2022-11-20T04:43:45;54.10;;;26.03;;
37593;SDS011;23441;50.856;6.076;2022-11-20T04:46:15;50.50;;;25.48;;
37593;SDS011;23441;50.856;6.076;2022-11-20T04:48:42;55.85;;;24.85;;
37593;SDS011;23441;50.856;6.076;2022-11-20T04:51:08;52.95;;;24.63;;
37593;SDS011;23441;50.856;6.076;2022-11-20T04:53:34;50.45;;;25.85;;
37593;SDS011;23441;50.856;6.076;2022-11-20T04:56:00;56.40;;;26.17;;
37593;SDS011;23441;50.856;6.076;2022-11-20T04:58:31;55.03;;;25.67;;
37593;SDS011;23441;50.856;6.076;2022-11-20T05:01:09;48.97;;;24.30;;
37593;SDS011;23441;50.856;6.076;2022-11-20T05:03:39;46.23;;;24.83;;
37593;SDS011;23441;50.856;6.076;2022-11-20T05:06:07;51.15;;;24.27;;
37593;SDS011;23441;50.856;6.076;2022-11-20T05:08:33;56.95;;;25.10;;
37593;SDS011;23441;50.856;6.076;2022-11-20T05:11:01;53.00;;;24.90;;
37593;SDS011;23441;50.856;6.076;2022-11-20T05:13:27;56.43;;;26.67;;
37593;SDS011;23441;50.856;6.076;2022-11-20T05:15:53;58.97;;;26.07;;
37593;SDS011;23441;50.856;6.076;2022-11-20T05:18:18;55.83;;;25.03;;
37593;SDS011;23441;50.856;6.076;2022-11-20T05:20:44;52.40;;;24.20;;
37593;SDS011;23441;50.856;6.076;2022-11-20T05:23:10;57.17;;;26.85;;
37593;SDS011;23441;50.856;6.076;2022-11-20T05:25:36;55.10;;;24.87;;
37593;SDS011;23441;50.856;6.076;2022-11-20T05:28:01;64.13;;;25.20;;
37593;SDS011;23441;50.856;6.076;2022-11-20T05:30:27;72.70;;;28.60;;
37593;SDS011;23441;50.856;6.076;2022-11-20T05:32:53;67.30;;;28.20;;
37593;SDS011;23441;50.856;6.076;2022-11-20T05:35:19;72.83;;;28.40;;
37593;SDS011;23441;50.856;6.076;2022-11-20T05:37:45;73.17;;;28.03;;
37593;SDS011;23441;50.856;6.076;2022-11-20T05:40:11;77.40;;;27.30;;
37593;SDS011;23441;50.856;6.076;2022-11-20T05:42:37;71.43;;;29.57;;
37593;SDS011;23441;50.856;6.076;2022-11-20T05:45:03;80.77;;;29.40;;
37593;SDS011;23441;50.856;6.076;2022-11-20T05:47:33;81.73;;;30.70;;
37593;SDS011;23441;50.856;6.076;2022-11-20T05:50:00;80.60;;;28.60;;
37593;SDS011;23441;50.856;6.076;2022-11-20T05:52:29;80.27;;;28.03;;
37593;SDS011;23441;50.856;6.076;2022-11-20T05:54:55;71.63;;;27.43;;
37593;SDS011;23441;50.856;6.076;2022-11-20T05:57:21;75.23;;;28.50;;
37593;SDS011;23441;50.856;6.076;2022-11-20T05:59:47;75.23;;;28.47;;
37593;SDS011;23441;50.856;6.076;2022-11-20T06:02:13;78.20;;;29.33;;
37593;SDS011;23441;50.856;6.076;2022-11-20T06:04:39;76.07;;;29.17;;
37593;SDS011;23441;50.856;6.076;2022-11-20T06:07:05;62.73;;;25.73;;
37593;SDS011;23441;50.856;6.076;2022-11-20T06:09:31;71.43;;;26.47;;
37593;SDS011;23441;50.856;6.076;2022-11-20T06:11:57;62.17;;;25.67;;
37593;SDS011;23441;50.856;6.076;2022-11-20T06:14:23;55.58;;;23.60;;
37593;SDS011;23441;50.856;6.076;2022-11-20T06:16:49;55.63;;;25.00;;
37593;SDS011;23441;50.856;6.076;2022-11-20T06:19:14;52.10;;;24.27;;
37593;SDS011;23441;50.856;6.076;2022-11-20T06:21:40;46.33;;;22.13;;
37593;SDS011;23441;50.856;6.076;2022-11-20T06:24:06;59.93;;;25.10;;
37593;SDS011;23441;50.856;6.076;2022-11-20T06:26:34;53.30;;;24.43;;
37593;SDS011;23441;50.856;6.076;2022-11-20T06:28:59;51.60;;;22.83;;
37593;SDS011;23441;50.856;6.076;2022-11-20T06:31:25;52.50;;;22.87;;
37593;SDS011;23441;50.856;6.076;2022-11-20T06:33:51;52.97;;;22.57;;
37593;SDS011;23441;50.856;6.076;2022-11-20T06:36:18;45.70;;;21.00;;
37593;SDS011;23441;50.856;6.076;2022-11-20T06:38:46;46.57;;;22.50;;
37593;SDS011;23441;50.856;6.076;2022-11-20T06:41:13;45.33;;;20.30;;
37593;SDS011;23441;50.856;6.076;2022-11-20T06:43:42;48.77;;;22.80;;
37593;SDS011;23441;50.856;6.076;2022-11-20T06:46:09;49.83;;;21.90;;
37593;SDS011;23441;50.856;6.076;2022-11-20T06:48:36;44.07;;;21.33;;
37593;SDS011;23441;50.856;6.076;2022-11-20T06:51:03;47.37;;;20.93;;
37593;SDS011;23441;50.856;6.076;2022-11-20T06:53:29;50.57;;;23.53;;
37593;SDS011;23441;50.856;6.076;2022-11-20T06:55:55;43.27;;;20.23;;
37593;SDS011;23441;50.856;6.076;2022-11-20T06:58:22;43.23;;;20.67;;
37593;SDS011;23441;50.856;6.076;2022-11-20T07:00:51;59.33;;;22.77;;
37593;SDS011;23441;50.856;6.076;2022-11-20T07:03:17;52.97;;;22.07;;
37593;SDS011;23441;50.856;6.076;2022-11-20T07:05:43;48.47;;;21.77;;
37593;SDS011;23441;50.856;6.076;2022-11-20T07:08:10;49.70;;;22.07;;
37593;SDS011;23441;50.856;6.076;2022-11-20T07:10:37;52.87;;;21.87;;
37593;SDS011;23441;50.856;6.076;2022-11-20T07:13:03;57.40;;;22.67;;
37593;SDS011;23441;50.856;6.076;2022-11-20T07:15:29;57.50;;;24.63;;
37593;SDS011;23441;50.856;6.076;2022-11-20T07:17:55;55.67;;;23.27;;
37593;SDS011;23441;50.856;6.076;2022-11-20T07:20:24;56.10;;;22.77;;
37593;SDS011;23441;50.856;6.076;2022-11-20T07:22:54;55.27;;;23.23;;
37593;SDS011;23441;50.856;6.076;2022-11-20T07:25:21;57.87;;;23.30;;
37593;SDS011;23441;50.856;6.076;2022-11-20T07:27:47;52.33;;;23.00;;
37593;SDS011;23441;50.856;6.076;2022-11-20T07:30:14;55.75;;;23.48;;
37593;SDS011;23441;50.856;6.076;2022-11-20T07:32:40;55.70;;;24.80;;
37593;SDS011;23441;50.856;6.076;2022-11-20T07:35:06;65.23;;;26.00;;
37593;SDS011;23441;50.856;6.076;2022-11-20T07:37:35;61.08;;;23.52;;
37593;SDS011;23441;50.856;6.076;2022-11-20T07:40:01;60.90;;;24.85;;
37593;SDS011;23441;50.856;6.076;2022-11-20T07:42:27;53.33;;;22.95;;
37593;SDS011;23441;50.856;6.076;2022-11-20T07:44:53;62.50;;;25.50;;
37593;SDS011;23441;50.856;6.076;2022-11-20T07:47:18;66.00;;;23.33;;
37593;SDS011;23441;50.856;6.076;2022-11-20T07:49:44;64.33;;;24.03;;
37593;SDS011;23441;50.856;6.076;2022-11-20T07:52:10;67.57;;;24.83;;
37593;SDS011;23441;50.856;6.076;2022-11-20T07:54:36;55.60;;;23.23;;
37593;SDS011;23441;50.856;6.076;2022-11-20T07:57:02;51.78;;;24.17;;
37593;SDS011;23441;50.856;6.076;2022-11-20T07:59:28;65.63;;;24.80;;
37593;SDS011;23441;50.856;6.076;2022-11-20T08:01:54;72.80;;;26.42;;
37593;SDS011;23441;50.856;6.076;2022-11-20T08:04:20;65.63;;;25.03;;
37593;SDS011;23441;50.856;6.076;2022-11-20T08:06:46;84.90;;;26.10;;
37593;SDS011;23441;50.856;6.076;2022-11-20T08:09:12;83.20;;;26.17;;
37593;SDS011;23441;50.856;6.076;2022-11-20T08:11:38;63.23;;;25.00;;
37593;SDS011;23441;50.856;6.076;2022-11-20T08:14:23;62.80;;;25.77;;
37593;SDS011;23441;50.856;6.076;2022-11-20T08:16:48;61.65;;;25.08;;
37593;SDS011;23441;50.856;6.076;2022-11-20T08:19:15;66.97;;;26.08;;
37593;SDS011;23441;50.856;6.076;2022-11-20T08:21:43;65.47;;;26.85;;
37593;SDS011;23441;50.856;6.076;2022-11-20T08:24:09;63.60;;;25.23;;
37593;SDS011;23441;50.856;6.076;2022-11-20T08:26:36;56.72;;;24.10;;
37593;SDS011;23441;50.856;6.076;2022-11-20T08:29:03;57.78;;;24.42;;
37593;SDS011;23441;50.856;6.076;2022-11-20T08:31:29;61.70;;;26.15;;
37593;SDS011;23441;50.856;6.076;2022-11-20T08:33:55;51.83;;;24.17;;
37593;SDS011;23441;50.856;6.076;2022-11-20T08:36:22;55.40;;;24.70;;
37593;SDS011;23441;50.856;6.076;2022-11-20T08:38:49;50.85;;;24.45;;
37593;SDS011;23441;50.856;6.076;2022-11-20T08:41:17;48.00;;;22.83;;
37593;SDS011;23441;50.856;6.076;2022-11-20T08:43:49;46.28;;;22.35;;
37593;SDS011;23441;50.856;6.076;2022-11-20T08:46:17;52.15;;;22.38;;
37593;SDS011;23441;50.856;6.076;2022-11-20T08:48:42;52.22;;;24.38;;
37593;SDS011;23441;50.856;6.076;2022-11-20T08:51:09;50.83;;;23.73;;
37593;SDS011;23441;50.856;6.076;2022-11-20T08:53:36;52.03;;;24.02;;
37593;SDS011;23441;50.856;6.076;2022-11-20T08:56:02;53.40;;;24.77;;
37593;SDS011;23441;50.856;6.076;2022-11-20T08:58:28;52.10;;;23.58;;
37593;SDS011;23441;50.856;6.076;2022-11-20T09:00:54;51.20;;;23.10;;
37593;SDS011;23441;50.856;6.076;2022-11-20T09:03:19;49.75;;;22.67;;
37593;SDS011;23441;50.856;6.076;2022-11-20T09:05:45;46.80;;;22.80;;
37593;SDS011;23441;50.856;6.076;2022-11-20T09:08:11;51.55;;;24.52;;
37593;SDS011;23441;50.856;6.076;2022-11-20T09:10:37;50.53;;;23.33;;
37593;SDS011;23441;50.856;6.076;2022-11-20T09:13:06;49.22;;;22.40;;
37593;SDS011;23441;50.856;6.076;2022-11-20T09:15:32;48.40;;;22.90;;
37593;SDS011;23441;50.856;6.076;2022-11-20T09:18:02;50.83;;;23.80;;
37593;SDS011;23441;50.856;6.076;2022-11-20T09:20:30;48.95;;;21.92;;
37593;SDS011;23441;50.856;6.076;2022-11-20T09:22:57;47.42;;;21.15;;
37593;SDS011;23441;50.856;6.076;2022-11-20T09:25:23;48.00;;;22.20;;
37593;SDS011;23441;50.856;6.076;2022-11-20T09:27:54;50.92;;;22.48;;
37593;SDS011;23441;50.856;6.076;2022-11-20T09:30:23;44.60;;;21.58;;
37593;SDS011;23441;50.856;6.076;2022-11-20T09:32:49;51.25;;;22.35;;
37593;SDS011;23441;50.856;6.076;2022-11-20T09:35:15;50.47;;;21.70;;
37593;SDS011;23441;50.856;6.076;2022-11-20T09:37:43;52.92;;;22.00;;
37593;SDS011;23441;50.856;6.076;2022-11-20T09:40:25;47.45;;;20.77;;
37593;SDS011;23441;50.856;6.076;2022-11-20T09:48:02;49.83;;;22.95;;
37593;SDS011;23441;50.856;6.076;2022-11-20T09:56:12;50.20;;;22.05;;
37593;SDS011;23441;50.856;6.076;2022-11-20T09:58:40;46.63;;;21.55;;
37593;SDS011;23441;50.856;6.076;2022-11-20T10:09:38;55.13;;;23.40;;
37593;SDS011;23441;50.856;6.076;2022-11-20T10:15:16;48.95;;;22.10;;
37593;SDS011;23441;50.856;6.076;2022-11-20T10:29:03;49.75;;;21.63;;
37593;SDS011;23441;50.856;6.076;2022-11-20T10:31:44;55.10;;;22.50;;
37593;SDS011;23441;50.856;6.076;2022-11-20T10:37:25;54.10;;;23.27;;
37593;SDS011;23441;50.856;6.076;2022-11-20T10:39:57;53.67;;;22.95;;
37593;SDS011;23441;50.856;6.076;2022-11-20T10:43:16;58.40;;;24.83;;
37593;SDS011;23441;50.856;6.076;2022-11-20T10:47:50;53.95;;;23.65;;
37593;SDS011;23441;50.856;6.076;2022-11-20T10:50:21;55.53;;;23.83;;
37593;SDS011;23441;50.856;6.076;2022-11-20T10:52:52;53.38;;;23.95;;
37593;SDS011;23441;50.856;6.076;2022-11-20T10:55:39;53.35;;;23.73;;
37593;SDS011;23441;50.856;6.076;2022-11-20T10:58:22;54.92;;;24.55;;
37593;SDS011;23441;50.856;6.076;2022-11-20T11:01:13;52.92;;;22.67;;
37593;SDS011;23441;50.856;6.076;2022-11-20T11:03:41;51.47;;;24.52;;
37593;SDS011;23441;50.856;6.076;2022-11-20T11:06:13;56.58;;;24.85;;
37593;SDS011;23441;50.856;6.076;2022-11-20T11:08:46;58.20;;;23.55;;
37593;SDS011;23441;50.856;6.076;2022-11-20T11:11:24;55.95;;;23.60;;
37593;SDS011;23441;50.856;6.076;2022-11-20T11:14:03;54.65;;;25.67;;
37593;SDS011;23441;50.856;6.076;2022-11-20T11:16:34;52.95;;;23.80;;
37593;SDS011;23441;50.856;6.076;2022-11-20T11:19:06;54.92;;;25.48;;
37593;SDS011;23441;50.856;6.076;2022-11-20T11:21:37;53.00;;;23.25;;
37593;SDS011;23441;50.856;6.076;2022-11-20T11:24:15;51.88;;;22.65;;
37593;SDS011;23441;50.856;6.076;2022-11-20T11:27:22;47.22;;;22.50;;
37593;SDS011;23441;50.856;6.076;2022-11-20T11:29:42;47.50;;;22.08;;
37593;SDS011;23441;50.856;6.076;2022-11-20T11:32:13;51.63;;;22.58;;
37593;SDS011;23441;50.856;6.076;2022-11-20T11:34:59;52.95;;;24.73;;
37593;SDS011;23441;50.856;6.076;2022-11-20T11:37:45;43.42;;;22.02;;
37593;SDS011;23441;50.856;6.076;2022-11-20T11:40:13;45.75;;;21.05;;
37593;SDS011;23441;50.856;6.076;2022-11-20T11:42:43;44.90;;;21.55;;
37593;SDS011;23441;50.856;6.076;2022-11-20T11:45:22;40.95;;;20.23;;
37593;SDS011;23441;50.856;6.076;2022-11-20T11:47:48;40.83;;;20.25;;
37593;SDS011;23441;50.856;6.076;2022-11-20T11:55:24;39.17;;;18.80;;
37593;SDS011;23441;50.856;6.076;2022-11-20T12:00:39;39.22;;;19.40;;
37593;SDS011;23441;50.856;6.076;2022-11-20T12:03:19;32.80;;;17.15;;
37593;SDS011;23441;50.856;6.076;2022-11-20T12:05:57;32.70;;;16.35;;
37593;SDS011;23441;50.856;6.076;2022-11-20T12:08:38;32.15;;;16.08;;
37593;SDS011;23441;50.856;6.076;2022-11-20T12:11:30;31.25;;;14.77;;
37593;SDS011;23441;50.856;6.076;2022-11-20T12:14:11;30.70;;;14.48;;
37593;SDS011;23441;50.856;6.076;2022-11-20T12:16:49;21.52;;;13.07;;
37593;SDS011;23441;50.856;6.076;2022-11-20T12:19:17;26.48;;;12.10;;
37593;SDS011;23441;50.856;6.076;2022-11-20T12:30:17;21.05;;;10.98;;
37593;SDS011;23441;50.856;6.076;2022-11-20T12:58:27;14.60;;;8.43;;
37593;SDS011;23441;50.856;6.076;2022-11-20T13:01:20;15.35;;;7.47;;
37593;SDS011;23441;50.856;6.076;2022-11-20T13:06:52;13.07;;;6.40;;
37593;SDS011;23441;50.856;6.076;2022-11-20T13:09:19;14.40;;;7.63;;
37593;SDS011;23441;50.856;6.076;2022-11-20T13:11:57;14.00;;;7.25;;
37593;SDS011;23441;50.856;6.076;2022-11-20T13:17:44;16.88;;;9.05;;
37593;SDS011;23441;50.856;6.076;2022-11-20T13:20:19;18.45;;;9.23;;
37593;SDS011;23441;50.856;6.076;2022-11-20T13:25:22;16.95;;;7.03;;
37593;SDS011;23441;50.856;6.076;2022-11-20T13:27:49;15.52;;;6.43;;
37593;SDS011;23441;50.856;6.076;2022-11-20T13:30:19;15.50;;;7.10;;
37593;SDS011;23441;50.856;6.076;2022-11-20T13:32:51;11.75;;;5.88;;
37593;SDS011;23441;50.856;6.076;2022-11-20T13:35:24;10.00;;;6.82;;
37593;SDS011;23441;50.856;6.076;2022-11-20T13:38:09;13.93;;;6.90;;
37593;SDS011;23441;50.856;6.076;2022-11-20T13:40:38;10.95;;;5.00;;
37593;SDS011;23441;50.856;6.076;2022-11-20T13:43:21;10.93;;;5.80;;
37593;SDS011;23441;50.856;6.076;2022-11-20T13:46:01;10.38;;;5.53;;
37593;SDS011;23441;50.856;6.076;2022-11-20T13:48:44;8.68;;;4.30;;
37593;SDS011;23441;50.856;6.076;2022-11-20T13:56:47;14.55;;;4.50;;
37593;SDS011;23441;50.856;6.076;2022-11-20T14:02:13;8.65;;;4.07;;
37593;SDS011;23441;50.856;6.076;2022-11-20T14:04:45;9.32;;;3.35;;
37593;SDS011;23441;50.856;6.076;2022-11-20T14:07:13;9.18;;;3.85;;
37593;SDS011;23441;50.856;6.076;2022-11-20T14:09:48;8.40;;;4.18;;
37593;SDS011;23441;50.856;6.076;2022-11-20T14:12:17;6.63;;;3.10;;
37593;SDS011;23441;50.856;6.076;2022-11-20T14:14:49;6.88;;;3.25;;
37593;SDS011;23441;50.856;6.076;2022-11-20T14:17:22;6.93;;;3.25;;
37593;SDS011;23441;50.856;6.076;2022-11-20T14:19:49;5.95;;;3.45;;
37593;SDS011;23441;50.856;6.076;2022-11-20T14:22:18;8.60;;;3.25;;
37593;SDS011;23441;50.856;6.076;2022-11-20T14:24:48;6.70;;;3.30;;
37593;SDS011;23441;50.856;6.076;2022-11-20T14:27:26;7.53;;;2.50;;
37593;SDS011;23441;50.856;6.076;2022-11-20T14:29:52;8.15;;;3.60;;
37593;SDS011;23441;50.856;6.076;2022-11-20T14:32:19;9.35;;;5.30;;
37593;SDS011;23441;50.856;6.076;2022-11-20T14:34:50;8.82;;;4.07;;
37593;SDS011;23441;50.856;6.076;2022-11-20T14:37:20;8.88;;;2.90;;
37593;SDS011;23441;50.856;6.076;2022-11-20T14:39:50;8.20;;;3.58;;
37593;SDS011;23441;50.856;6.076;2022-11-20T14:42:21;11.43;;;3.50;;
37593;SDS011;23441;50.856;6.076;2022-11-20T14:44:49;6.20;;;3.00;;
37593;SDS011;23441;50.856;6.076;2022-11-20T14:47:21;6.82;;;3.40;;
37593;SDS011;23441;50.856;6.076;2022-11-20T14:49:49;8.35;;;5.25;;
37593;SDS011;23441;50.856;6.076;2022-11-20T14:52:23;7.57;;;3.13;;
37593;SDS011;23441;50.856;6.076;2022-11-20T14:54:55;7.53;;;3.10;;
37593;SDS011;23441;50.856;6.076;2022-11-20T15:02:30;9.25;;;2.97;;
37593;SDS011;23441;50.856;6.076;2022-11-20T15:04:57;4.95;;;2.63;;
37593;SDS011;23441;50.856;6.076;2022-11-20T15:07:28;5.53;;;3.55;;
37593;SDS011;23441;50.856;6.076;2022-11-20T15:10:00;5.22;;;3.10;;
37593;SDS011;23441;50.856;6.076;2022-11-20T15:12:35;10.07;;;4.05;;
37593;SDS011;23441;50.856;6.076;2022-11-20T15:18:13;4.22;;;3.20;;
37593;SDS011;23441;50.856;6.076;2022-11-20T15:20:42;5.47;;;3.33;;
37593;SDS011;23441;50.856;6.076;2022-11-20T15:23:12;5.88;;;3.10;;
37593;SDS011;23441;50.856;6.076;2022-11-20T15:25:40;13.70;;;3.60;;
37593;SDS011;23441;50.856;6.076;2022-11-20T15:28:19;7.18;;;3.60;;
37593;SDS011;23441;50.856;6.076;2022-11-20T15:30:48;5.88;;;3.90;;
37593;SDS011;23441;50.856;6.076;2022-11-20T15:33:15;5.53;;;3.88;;
37593;SDS011;23441;50.856;6.076;2022-11-20T15:35:42;6.22;;;3.85;;
37593;SDS011;23441;50.856;6.076;2022-11-20T15:38:08;7.40;;;4.28;;
37593;SDS011;23441;50.856;6.076;2022-11-20T15:40:34;8.10;;;4.75;;
37593;SDS011;23441;50.856;6.076;2022-11-20T15:43:01;4.97;;;3.63;;
37593;SDS011;23441;50.856;6.076;2022-11-20T15:45:28;7.88;;;3.47;;
37593;SDS011;23441;50.856;6.076;2022-11-20T15:47:58;5.47;;;3.67;;
37593;SDS011;23441;50.856;6.076;2022-11-20T15:50:30;4.00;;;2.92;;
37593;SDS011;23441;50.856;6.076;2022-11-20T15:53:02;7.25;;;3.83;;
37593;SDS011;23441;50.856;6.076;2022-11-20T15:55:28;5.50;;;3.53;;
37593;SDS011;23441;50.856;6.076;2022-11-20T15:57:55;9.18;;;3.15;;
37593;SDS011;23441;50.856;6.076;2022-11-20T16:00:21;5.22;;;3.22;;
37593;SDS011;23441;50.856;6.076;2022-11-20T16:02:47;3.80;;;3.17;;
37593;SDS011;23441;50.856;6.076;2022-11-20T16:05:13;5.57;;;2.95;;
37593;SDS011;23441;50.856;6.076;2022-11-20T16:07:40;3.78;;;2.95;;
37593;SDS011;23441;50.856;6.076;2022-11-20T16:10:05;5.13;;;2.63;;
37593;SDS011;23441;50.856;6.076;2022-11-20T16:12:32;5.75;;;2.90;;
37593;SDS011;23441;50.856;6.076;2022-11-20T16:15:16;4.32;;;3.17;;
37593;SDS011;23441;50.856;6.076;2022-11-20T16:18:01;6.60;;;2.78;;
37593;SDS011;23441;50.856;6.076;2022-11-20T16:20:26;2.83;;;2.10;;
37593;SDS011;23441;50.856;6.076;2022-11-20T16:22:52;3.55;;;2.72;;
37593;SDS011;23441;50.856;6.076;2022-11-20T16:25:18;3.25;;;2.72;;
37593;SDS011;23441;50.856;6.076;2022-11-20T16:27:44;4.13;;;2.40;;
37593;SDS011;23441;50.856;6.076;2022-11-20T16:30:09;2.90;;;2.53;;